sensor_id;sensor_type;location;lat;lon;timestamp;P1;durP1;ratioP1;P2;durP2;ratioP2
57341;SDS011;43175;51.002;18.316;2023-08-30T00:00:09;38.10;;;19.80;;
57341;SDS011;43175;51.002;18.316;2023-08-30T00:02:35;38.10;;;19.70;;
57341;SDS011;43175;51.002;18.316;2023-08-30T00:05:02;37.50;;;19.80;;
57341;SDS011;43175;51.002;18.316;2023-08-30T00:07:28;40.40;;;20.00;;
57341;SDS011;43175;51.002;18.316;2023-08-30T00:09:54;40.60;;;20.10;;
57341;SDS011;43175;51.002;18.316;2023-08-30T00:12:19;37.60;;;19.40;;
57341;SDS011;43175;51.002;18.316;2023-08-30T00:14:45;39.20;;;18.90;;
57341;SDS011;43175;51.002;18.316;2023-08-30T00:17:10;38.10;;;19.30;;
57341;SDS011;43175;51.002;18.316;2023-08-30T00:19:36;42.80;;;21.20;;
57341;SDS011;43175;51.002;18.316;2023-08-30T00:22:01;40.00;;;19.50;;
57341;SDS011;43175;51.002;18.316;2023-08-30T00:24:28;45.30;;;20.20;;
57341;SDS011;43175;51.002;18.316;2023-08-30T00:26:53;42.30;;;19.00;;
57341;SDS011;43175;51.002;18.316;2023-08-30T00:29:19;43.90;;;19.90;;
57341;SDS011;43175;51.002;18.316;2023-08-30T00:31:44;39.00;;;18.30;;
57341;SDS011;43175;51.002;18.316;2023-08-30T00:34:10;40.10;;;18.80;;
57341;SDS011;43175;51.002;18.316;2023-08-30T00:36:36;45.70;;;18.70;;
57341;SDS011;43175;51.002;18.316;2023-08-30T00:39:01;41.50;;;19.30;;
57341;SDS011;43175;51.002;18.316;2023-08-30T00:41:28;38.00;;;18.90;;
57341;SDS011;43175;51.002;18.316;2023-08-30T00:43:53;39.20;;;18.70;;
57341;SDS011;43175;51.002;18.316;2023-08-30T00:46:19;40.00;;;19.50;;
57341;SDS011;43175;51.002;18.316;2023-08-30T00:48:44;39.30;;;18.80;;
57341;SDS011;43175;51.002;18.316;2023-08-30T00:51:10;35.00;;;18.30;;
57341;SDS011;43175;51.002;18.316;2023-08-30T00:53:35;42.60;;;19.50;;
57341;SDS011;43175;51.002;18.316;2023-08-30T00:56:01;41.10;;;19.80;;
57341;SDS011;43175;51.002;18.316;2023-08-30T00:58:27;44.00;;;19.50;;
57341;SDS011;43175;51.002;18.316;2023-08-30T01:00:53;45.70;;;20.40;;
57341;SDS011;43175;51.002;18.316;2023-08-30T01:03:19;45.60;;;20.90;;
57341;SDS011;43175;51.002;18.316;2023-08-30T01:05:47;48.90;;;21.80;;
57341;SDS011;43175;51.002;18.316;2023-08-30T01:08:12;50.20;;;20.50;;
57341;SDS011;43175;51.002;18.316;2023-08-30T01:10:41;43.60;;;19.60;;
57341;SDS011;43175;51.002;18.316;2023-08-30T01:13:12;49.70;;;20.60;;
57341;SDS011;43175;51.002;18.316;2023-08-30T01:15:45;43.10;;;20.00;;
57341;SDS011;43175;51.002;18.316;2023-08-30T01:18:12;43.40;;;20.60;;
57341;SDS011;43175;51.002;18.316;2023-08-30T01:20:37;48.60;;;20.30;;
57341;SDS011;43175;51.002;18.316;2023-08-30T01:23:24;44.20;;;19.40;;
57341;SDS011;43175;51.002;18.316;2023-08-30T01:26:08;43.90;;;19.50;;
57341;SDS011;43175;51.002;18.316;2023-08-30T01:28:36;44.70;;;19.80;;
57341;SDS011;43175;51.002;18.316;2023-08-30T01:31:04;50.40;;;20.70;;
57341;SDS011;43175;51.002;18.316;2023-08-30T01:33:32;47.80;;;20.20;;
57341;SDS011;43175;51.002;18.316;2023-08-30T01:35:58;45.70;;;19.70;;
57341;SDS011;43175;51.002;18.316;2023-08-30T01:38:26;43.40;;;19.40;;
57341;SDS011;43175;51.002;18.316;2023-08-30T01:40:53;46.00;;;19.40;;
57341;SDS011;43175;51.002;18.316;2023-08-30T01:43:20;44.60;;;19.70;;
57341;SDS011;43175;51.002;18.316;2023-08-30T01:45:46;44.70;;;20.10;;
57341;SDS011;43175;51.002;18.316;2023-08-30T01:48:13;44.70;;;19.50;;
57341;SDS011;43175;51.002;18.316;2023-08-30T01:50:41;48.50;;;20.80;;
57341;SDS011;43175;51.002;18.316;2023-08-30T01:53:07;47.50;;;20.00;;
57341;SDS011;43175;51.002;18.316;2023-08-30T01:55:34;48.20;;;19.50;;
57341;SDS011;43175;51.002;18.316;2023-08-30T01:58:00;55.40;;;21.70;;
57341;SDS011;43175;51.002;18.316;2023-08-30T02:00:26;50.90;;;20.70;;
57341;SDS011;43175;51.002;18.316;2023-08-30T02:02:52;48.50;;;19.70;;
57341;SDS011;43175;51.002;18.316;2023-08-30T02:05:17;52.20;;;20.30;;
57341;SDS011;43175;51.002;18.316;2023-08-30T02:07:48;48.90;;;19.70;;
57341;SDS011;43175;51.002;18.316;2023-08-30T02:12:52;45.90;;;17.50;;
57341;SDS011;43175;51.002;18.316;2023-08-30T02:15:19;49.00;;;18.90;;
57341;SDS011;43175;51.002;18.316;2023-08-30T02:17:46;49.40;;;19.20;;
57341;SDS011;43175;51.002;18.316;2023-08-30T02:20:13;51.00;;;20.40;;
57341;SDS011;43175;51.002;18.316;2023-08-30T02:22:39;45.40;;;18.30;;
57341;SDS011;43175;51.002;18.316;2023-08-30T02:25:04;46.00;;;18.20;;
57341;SDS011;43175;51.002;18.316;2023-08-30T02:27:34;49.60;;;18.70;;
57341;SDS011;43175;51.002;18.316;2023-08-30T02:30:00;46.20;;;18.90;;
57341;SDS011;43175;51.002;18.316;2023-08-30T02:32:26;48.40;;;19.50;;
57341;SDS011;43175;51.002;18.316;2023-08-30T02:34:52;50.50;;;19.60;;
57341;SDS011;43175;51.002;18.316;2023-08-30T02:37:18;52.20;;;19.60;;
57341;SDS011;43175;51.002;18.316;2023-08-30T02:39:44;54.00;;;20.60;;
57341;SDS011;43175;51.002;18.316;2023-08-30T02:42:09;50.40;;;19.70;;
57341;SDS011;43175;51.002;18.316;2023-08-30T02:44:35;49.30;;;19.90;;
57341;SDS011;43175;51.002;18.316;2023-08-30T02:47:00;55.50;;;19.60;;
57341;SDS011;43175;51.002;18.316;2023-08-30T02:49:26;51.40;;;20.00;;
57341;SDS011;43175;51.002;18.316;2023-08-30T02:51:52;52.50;;;20.00;;
57341;SDS011;43175;51.002;18.316;2023-08-30T02:54:18;51.50;;;19.20;;
57341;SDS011;43175;51.002;18.316;2023-08-30T02:56:43;51.90;;;18.80;;
57341;SDS011;43175;51.002;18.316;2023-08-30T02:59:09;52.80;;;19.20;;
57341;SDS011;43175;51.002;18.316;2023-08-30T03:01:35;47.20;;;18.80;;
57341;SDS011;43175;51.002;18.316;2023-08-30T03:04:01;51.90;;;19.90;;
57341;SDS011;43175;51.002;18.316;2023-08-30T03:06:27;49.50;;;19.80;;
57341;SDS011;43175;51.002;18.316;2023-08-30T03:08:55;51.00;;;20.10;;
57341;SDS011;43175;51.002;18.316;2023-08-30T03:11:21;52.80;;;19.80;;
57341;SDS011;43175;51.002;18.316;2023-08-30T03:13:47;48.50;;;19.20;;
57341;SDS011;43175;51.002;18.316;2023-08-30T03:16:13;50.30;;;20.60;;
57341;SDS011;43175;51.002;18.316;2023-08-30T03:18:42;47.30;;;18.70;;
57341;SDS011;43175;51.002;18.316;2023-08-30T03:21:09;47.90;;;19.20;;
57341;SDS011;43175;51.002;18.316;2023-08-30T03:23:35;57.50;;;19.80;;
57341;SDS011;43175;51.002;18.316;2023-08-30T03:26:11;48.20;;;19.00;;
57341;SDS011;43175;51.002;18.316;2023-08-30T03:28:40;48.60;;;20.50;;
57341;SDS011;43175;51.002;18.316;2023-08-30T03:31:16;54.50;;;20.90;;
57341;SDS011;43175;51.002;18.316;2023-08-30T03:33:43;51.30;;;20.40;;
57341;SDS011;43175;51.002;18.316;2023-08-30T03:36:12;51.00;;;19.70;;
57341;SDS011;43175;51.002;18.316;2023-08-30T03:38:42;55.40;;;19.80;;
57341;SDS011;43175;51.002;18.316;2023-08-30T03:41:08;53.60;;;19.50;;
57341;SDS011;43175;51.002;18.316;2023-08-30T03:43:35;57.50;;;19.50;;
57341;SDS011;43175;51.002;18.316;2023-08-30T03:46:00;50.30;;;19.40;;
57341;SDS011;43175;51.002;18.316;2023-08-30T03:48:26;53.20;;;20.00;;
57341;SDS011;43175;51.002;18.316;2023-08-30T03:50:52;53.30;;;19.60;;
57341;SDS011;43175;51.002;18.316;2023-08-30T03:53:19;49.70;;;18.20;;
57341;SDS011;43175;51.002;18.316;2023-08-30T03:55:44;50.40;;;17.10;;
57341;SDS011;43175;51.002;18.316;2023-08-30T03:58:10;50.80;;;17.00;;
57341;SDS011;43175;51.002;18.316;2023-08-30T04:00:36;47.10;;;16.20;;
57341;SDS011;43175;51.002;18.316;2023-08-30T04:03:03;45.20;;;16.10;;
57341;SDS011;43175;51.002;18.316;2023-08-30T04:05:33;40.10;;;15.70;;
57341;SDS011;43175;51.002;18.316;2023-08-30T04:08:05;46.10;;;15.60;;
57341;SDS011;43175;51.002;18.316;2023-08-30T04:10:38;45.20;;;15.50;;
57341;SDS011;43175;51.002;18.316;2023-08-30T04:13:04;38.00;;;15.20;;
57341;SDS011;43175;51.002;18.316;2023-08-30T04:15:34;42.10;;;15.20;;
57341;SDS011;43175;51.002;18.316;2023-08-30T04:18:00;44.80;;;14.70;;
57341;SDS011;43175;51.002;18.316;2023-08-30T04:20:26;45.00;;;15.20;;
57341;SDS011;43175;51.002;18.316;2023-08-30T04:22:52;46.20;;;15.60;;
57341;SDS011;43175;51.002;18.316;2023-08-30T04:25:20;49.30;;;15.90;;
57341;SDS011;43175;51.002;18.316;2023-08-30T04:27:46;41.80;;;14.10;;
57341;SDS011;43175;51.002;18.316;2023-08-30T04:30:15;45.10;;;14.40;;
57341;SDS011;43175;51.002;18.316;2023-08-30T04:32:41;39.90;;;13.20;;
57341;SDS011;43175;51.002;18.316;2023-08-30T04:35:06;34.60;;;13.20;;
57341;SDS011;43175;51.002;18.316;2023-08-30T04:37:32;39.30;;;14.40;;
57341;SDS011;43175;51.002;18.316;2023-08-30T04:39:58;39.40;;;13.60;;
57341;SDS011;43175;51.002;18.316;2023-08-30T04:42:23;35.70;;;12.40;;
57341;SDS011;43175;51.002;18.316;2023-08-30T04:44:50;36.80;;;13.20;;
57341;SDS011;43175;51.002;18.316;2023-08-30T04:47:17;38.60;;;13.70;;
57341;SDS011;43175;51.002;18.316;2023-08-30T04:49:43;41.10;;;15.40;;
57341;SDS011;43175;51.002;18.316;2023-08-30T04:52:08;39.90;;;14.60;;
57341;SDS011;43175;51.002;18.316;2023-08-30T04:54:34;40.80;;;14.40;;
57341;SDS011;43175;51.002;18.316;2023-08-30T04:56:59;42.40;;;13.90;;
57341;SDS011;43175;51.002;18.316;2023-08-30T04:59:24;35.80;;;13.50;;
57341;SDS011;43175;51.002;18.316;2023-08-30T05:01:50;35.50;;;12.80;;
57341;SDS011;43175;51.002;18.316;2023-08-30T05:04:17;33.00;;;12.70;;
57341;SDS011;43175;51.002;18.316;2023-08-30T05:06:43;29.40;;;11.70;;
57341;SDS011;43175;51.002;18.316;2023-08-30T05:09:08;31.00;;;11.60;;
57341;SDS011;43175;51.002;18.316;2023-08-30T05:11:34;29.70;;;11.50;;
57341;SDS011;43175;51.002;18.316;2023-08-30T05:13:59;29.70;;;11.00;;
57341;SDS011;43175;51.002;18.316;2023-08-30T05:16:25;28.00;;;10.10;;
57341;SDS011;43175;51.002;18.316;2023-08-30T05:18:50;25.90;;;10.10;;
57341;SDS011;43175;51.002;18.316;2023-08-30T05:21:16;26.40;;;9.70;;
57341;SDS011;43175;51.002;18.316;2023-08-30T05:23:41;29.80;;;10.70;;
57341;SDS011;43175;51.002;18.316;2023-08-30T05:26:10;26.90;;;10.30;;
57341;SDS011;43175;51.002;18.316;2023-08-30T05:28:38;25.90;;;9.70;;
57341;SDS011;43175;51.002;18.316;2023-08-30T05:31:04;22.60;;;9.10;;
57341;SDS011;43175;51.002;18.316;2023-08-30T05:33:29;19.80;;;7.90;;
57341;SDS011;43175;51.002;18.316;2023-08-30T05:35:56;22.00;;;8.30;;
57341;SDS011;43175;51.002;18.316;2023-08-30T05:38:21;19.30;;;7.30;;
57341;SDS011;43175;51.002;18.316;2023-08-30T05:40:47;18.50;;;6.80;;
57341;SDS011;43175;51.002;18.316;2023-08-30T05:43:13;16.20;;;6.00;;
57341;SDS011;43175;51.002;18.316;2023-08-30T05:45:38;15.10;;;5.70;;
57341;SDS011;43175;51.002;18.316;2023-08-30T05:48:05;16.30;;;6.00;;
57341;SDS011;43175;51.002;18.316;2023-08-30T05:50:31;19.40;;;7.50;;
57341;SDS011;43175;51.002;18.316;2023-08-30T05:52:56;17.10;;;7.10;;
57341;SDS011;43175;51.002;18.316;2023-08-30T05:55:21;19.70;;;7.80;;
57341;SDS011;43175;51.002;18.316;2023-08-30T05:57:47;20.50;;;7.40;;
57341;SDS011;43175;51.002;18.316;2023-08-30T06:00:15;21.30;;;7.40;;
57341;SDS011;43175;51.002;18.316;2023-08-30T06:02:41;18.40;;;7.70;;
57341;SDS011;43175;51.002;18.316;2023-08-30T06:05:07;19.10;;;7.50;;
57341;SDS011;43175;51.002;18.316;2023-08-30T06:07:33;20.80;;;7.70;;
57341;SDS011;43175;51.002;18.316;2023-08-30T06:09:58;18.20;;;7.30;;
57341;SDS011;43175;51.002;18.316;2023-08-30T06:12:24;17.30;;;7.40;;
57341;SDS011;43175;51.002;18.316;2023-08-30T06:14:51;21.20;;;7.40;;
57341;SDS011;43175;51.002;18.316;2023-08-30T06:17:18;18.40;;;7.60;;
57341;SDS011;43175;51.002;18.316;2023-08-30T06:19:44;18.20;;;7.70;;
57341;SDS011;43175;51.002;18.316;2023-08-30T06:22:10;20.40;;;8.20;;
57341;SDS011;43175;51.002;18.316;2023-08-30T06:24:35;19.00;;;7.80;;
57341;SDS011;43175;51.002;18.316;2023-08-30T06:27:02;19.70;;;8.00;;
57341;SDS011;43175;51.002;18.316;2023-08-30T06:29:27;18.00;;;7.70;;
57341;SDS011;43175;51.002;18.316;2023-08-30T06:31:53;18.30;;;7.70;;
57341;SDS011;43175;51.002;18.316;2023-08-30T06:34:18;19.90;;;8.00;;
57341;SDS011;43175;51.002;18.316;2023-08-30T06:36:43;18.00;;;8.00;;
57341;SDS011;43175;51.002;18.316;2023-08-30T06:39:09;20.00;;;8.10;;
57341;SDS011;43175;51.002;18.316;2023-08-30T06:41:34;16.30;;;7.80;;
57341;SDS011;43175;51.002;18.316;2023-08-30T06:44:00;17.10;;;8.00;;
57341;SDS011;43175;51.002;18.316;2023-08-30T06:46:25;19.20;;;8.30;;
57341;SDS011;43175;51.002;18.316;2023-08-30T06:48:51;16.90;;;7.90;;
57341;SDS011;43175;51.002;18.316;2023-08-30T06:51:16;16.10;;;7.80;;
57341;SDS011;43175;51.002;18.316;2023-08-30T06:53:42;15.70;;;7.80;;
57341;SDS011;43175;51.002;18.316;2023-08-30T06:56:07;15.00;;;7.40;;
57341;SDS011;43175;51.002;18.316;2023-08-30T06:58:33;15.10;;;7.60;;
57341;SDS011;43175;51.002;18.316;2023-08-30T07:00:58;15.60;;;7.90;;
57341;SDS011;43175;51.002;18.316;2023-08-30T07:03:24;17.70;;;8.20;;
57341;SDS011;43175;51.002;18.316;2023-08-30T07:05:50;15.20;;;7.60;;
57341;SDS011;43175;51.002;18.316;2023-08-30T07:08:17;15.30;;;7.10;;
57341;SDS011;43175;51.002;18.316;2023-08-30T07:10:43;14.90;;;7.30;;
57341;SDS011;43175;51.002;18.316;2023-08-30T07:13:08;14.50;;;7.60;;
57341;SDS011;43175;51.002;18.316;2023-08-30T07:15:40;14.50;;;7.40;;
57341;SDS011;43175;51.002;18.316;2023-08-30T07:18:07;14.90;;;7.60;;
57341;SDS011;43175;51.002;18.316;2023-08-30T07:20:33;15.40;;;7.60;;
57341;SDS011;43175;51.002;18.316;2023-08-30T07:23:00;15.40;;;8.30;;
57341;SDS011;43175;51.002;18.316;2023-08-30T07:25:26;16.50;;;9.10;;
57341;SDS011;43175;51.002;18.316;2023-08-30T07:27:52;16.90;;;8.90;;
57341;SDS011;43175;51.002;18.316;2023-08-30T07:30:17;16.30;;;8.70;;
57341;SDS011;43175;51.002;18.316;2023-08-30T07:32:43;17.20;;;9.20;;
57341;SDS011;43175;51.002;18.316;2023-08-30T07:35:08;19.30;;;9.90;;
57341;SDS011;43175;51.002;18.316;2023-08-30T07:37:34;16.90;;;9.20;;
57341;SDS011;43175;51.002;18.316;2023-08-30T07:40:01;17.10;;;9.50;;
57341;SDS011;43175;51.002;18.316;2023-08-30T07:42:29;18.60;;;9.80;;
57341;SDS011;43175;51.002;18.316;2023-08-30T07:44:55;17.40;;;9.20;;
57341;SDS011;43175;51.002;18.316;2023-08-30T07:47:20;20.30;;;9.60;;
57341;SDS011;43175;51.002;18.316;2023-08-30T07:49:47;22.20;;;9.80;;
57341;SDS011;43175;51.002;18.316;2023-08-30T07:52:12;25.80;;;9.90;;
57341;SDS011;43175;51.002;18.316;2023-08-30T07:54:39;16.90;;;8.50;;
57341;SDS011;43175;51.002;18.316;2023-08-30T07:57:05;22.00;;;10.00;;
57341;SDS011;43175;51.002;18.316;2023-08-30T07:59:34;18.80;;;9.80;;
57341;SDS011;43175;51.002;18.316;2023-08-30T08:02:01;20.20;;;10.90;;
57341;SDS011;43175;51.002;18.316;2023-08-30T08:04:28;18.40;;;10.30;;
57341;SDS011;43175;51.002;18.316;2023-08-30T08:06:54;19.30;;;10.80;;
57341;SDS011;43175;51.002;18.316;2023-08-30T08:09:20;18.00;;;10.00;;
57341;SDS011;43175;51.002;18.316;2023-08-30T08:11:50;17.10;;;9.40;;
57341;SDS011;43175;51.002;18.316;2023-08-30T08:14:16;16.80;;;9.30;;
57341;SDS011;43175;51.002;18.316;2023-08-30T08:16:41;16.50;;;9.00;;
57341;SDS011;43175;51.002;18.316;2023-08-30T08:19:12;15.50;;;8.20;;
57341;SDS011;43175;51.002;18.316;2023-08-30T08:21:41;15.50;;;7.70;;
57341;SDS011;43175;51.002;18.316;2023-08-30T08:24:06;13.60;;;7.10;;
57341;SDS011;43175;51.002;18.316;2023-08-30T08:26:32;14.10;;;7.60;;
57341;SDS011;43175;51.002;18.316;2023-08-30T08:28:57;14.70;;;7.60;;
57341;SDS011;43175;51.002;18.316;2023-08-30T08:31:25;16.80;;;7.40;;
57341;SDS011;43175;51.002;18.316;2023-08-30T08:34:08;14.10;;;7.20;;
57341;SDS011;43175;51.002;18.316;2023-08-30T08:36:38;15.10;;;7.00;;
57341;SDS011;43175;51.002;18.316;2023-08-30T08:39:04;15.20;;;8.00;;
57341;SDS011;43175;51.002;18.316;2023-08-30T08:41:40;15.00;;;7.70;;
57341;SDS011;43175;51.002;18.316;2023-08-30T08:44:11;13.80;;;7.40;;
57341;SDS011;43175;51.002;18.316;2023-08-30T08:46:38;13.40;;;6.60;;
57341;SDS011;43175;51.002;18.316;2023-08-30T08:49:14;13.10;;;6.70;;
57341;SDS011;43175;51.002;18.316;2023-08-30T08:51:59;13.20;;;7.10;;
57341;SDS011;43175;51.002;18.316;2023-08-30T08:54:25;15.90;;;7.80;;
57341;SDS011;43175;51.002;18.316;2023-08-30T08:56:52;16.20;;;7.80;;
57341;SDS011;43175;51.002;18.316;2023-08-30T08:59:19;14.60;;;8.00;;
57341;SDS011;43175;51.002;18.316;2023-08-30T09:01:44;13.00;;;6.70;;
57341;SDS011;43175;51.002;18.316;2023-08-30T09:04:10;14.20;;;7.30;;
57341;SDS011;43175;51.002;18.316;2023-08-30T09:06:36;13.10;;;7.40;;
57341;SDS011;43175;51.002;18.316;2023-08-30T09:09:03;14.30;;;7.00;;
57341;SDS011;43175;51.002;18.316;2023-08-30T09:11:30;12.70;;;6.60;;
57341;SDS011;43175;51.002;18.316;2023-08-30T09:13:55;13.70;;;7.40;;
57341;SDS011;43175;51.002;18.316;2023-08-30T09:16:21;12.90;;;6.70;;
57341;SDS011;43175;51.002;18.316;2023-08-30T09:19:02;13.90;;;6.60;;
57341;SDS011;43175;51.002;18.316;2023-08-30T09:21:32;14.30;;;7.00;;
57341;SDS011;43175;51.002;18.316;2023-08-30T09:24:04;12.80;;;6.80;;
57341;SDS011;43175;51.002;18.316;2023-08-30T09:26:31;12.30;;;6.30;;
57341;SDS011;43175;51.002;18.316;2023-08-30T09:29:02;12.60;;;6.80;;
57341;SDS011;43175;51.002;18.316;2023-08-30T09:31:35;16.70;;;6.50;;
57341;SDS011;43175;51.002;18.316;2023-08-30T09:34:05;14.20;;;6.40;;
57341;SDS011;43175;51.002;18.316;2023-08-30T09:39:07;13.60;;;6.40;;
57341;SDS011;43175;51.002;18.316;2023-08-30T09:41:37;13.40;;;6.50;;
57341;SDS011;43175;51.002;18.316;2023-08-30T09:44:09;12.80;;;6.10;;
57341;SDS011;43175;51.002;18.316;2023-08-30T09:46:44;13.00;;;6.30;;
57341;SDS011;43175;51.002;18.316;2023-08-30T09:49:13;13.10;;;6.30;;
57341;SDS011;43175;51.002;18.316;2023-08-30T09:51:39;13.50;;;6.10;;
57341;SDS011;43175;51.002;18.316;2023-08-30T09:54:13;11.50;;;5.70;;
57341;SDS011;43175;51.002;18.316;2023-08-30T09:56:43;13.80;;;6.90;;
57341;SDS011;43175;51.002;18.316;2023-08-30T09:59:13;14.90;;;7.10;;
57341;SDS011;43175;51.002;18.316;2023-08-30T10:01:42;15.70;;;7.90;;
57341;SDS011;43175;51.002;18.316;2023-08-30T10:04:09;16.70;;;8.50;;
57341;SDS011;43175;51.002;18.316;2023-08-30T10:06:38;18.50;;;9.20;;
57341;SDS011;43175;51.002;18.316;2023-08-30T10:09:05;17.20;;;9.20;;
57341;SDS011;43175;51.002;18.316;2023-08-30T10:11:33;16.90;;;9.20;;
57341;SDS011;43175;51.002;18.316;2023-08-30T10:14:03;17.50;;;9.60;;
57341;SDS011;43175;51.002;18.316;2023-08-30T10:16:31;16.40;;;8.80;;
57341;SDS011;43175;51.002;18.316;2023-08-30T10:19:03;16.50;;;8.80;;
57341;SDS011;43175;51.002;18.316;2023-08-30T10:21:34;15.70;;;8.50;;
57341;SDS011;43175;51.002;18.316;2023-08-30T10:24:00;16.40;;;8.70;;
57341;SDS011;43175;51.002;18.316;2023-08-30T10:26:28;15.30;;;8.30;;
57341;SDS011;43175;51.002;18.316;2023-08-30T10:28:55;14.50;;;8.00;;
57341;SDS011;43175;51.002;18.316;2023-08-30T10:31:22;15.30;;;7.90;;
57341;SDS011;43175;51.002;18.316;2023-08-30T10:33:50;14.00;;;7.40;;
57341;SDS011;43175;51.002;18.316;2023-08-30T10:38:54;12.50;;;6.60;;
57341;SDS011;43175;51.002;18.316;2023-08-30T10:41:29;12.60;;;6.00;;
57341;SDS011;43175;51.002;18.316;2023-08-30T10:43:55;12.40;;;6.70;;
57341;SDS011;43175;51.002;18.316;2023-08-30T10:46:30;11.80;;;6.00;;
57341;SDS011;43175;51.002;18.316;2023-08-30T10:49:14;13.30;;;6.70;;
57341;SDS011;43175;51.002;18.316;2023-08-30T10:51:43;13.80;;;7.20;;
57341;SDS011;43175;51.002;18.316;2023-08-30T10:54:13;11.20;;;5.80;;
57341;SDS011;43175;51.002;18.316;2023-08-30T10:56:47;10.60;;;5.10;;
57341;SDS011;43175;51.002;18.316;2023-08-30T10:59:20;10.40;;;4.90;;
57341;SDS011;43175;51.002;18.316;2023-08-30T11:01:46;11.10;;;5.60;;
57341;SDS011;43175;51.002;18.316;2023-08-30T11:04:14;11.20;;;5.50;;
57341;SDS011;43175;51.002;18.316;2023-08-30T11:06:44;10.60;;;5.10;;
57341;SDS011;43175;51.002;18.316;2023-08-30T11:09:15;10.60;;;5.00;;
57341;SDS011;43175;51.002;18.316;2023-08-30T11:11:48;10.40;;;5.10;;
57341;SDS011;43175;51.002;18.316;2023-08-30T11:14:15;10.60;;;4.90;;
57341;SDS011;43175;51.002;18.316;2023-08-30T11:16:41;11.30;;;6.10;;
57341;SDS011;43175;51.002;18.316;2023-08-30T11:19:08;10.70;;;5.50;;
57341;SDS011;43175;51.002;18.316;2023-08-30T11:21:38;10.60;;;5.60;;
57341;SDS011;43175;51.002;18.316;2023-08-30T11:24:10;10.60;;;5.30;;
57341;SDS011;43175;51.002;18.316;2023-08-30T11:26:37;9.70;;;5.00;;
57341;SDS011;43175;51.002;18.316;2023-08-30T11:29:03;10.20;;;4.90;;
57341;SDS011;43175;51.002;18.316;2023-08-30T11:31:31;9.80;;;4.80;;
57341;SDS011;43175;51.002;18.316;2023-08-30T11:33:58;10.30;;;5.10;;
57341;SDS011;43175;51.002;18.316;2023-08-30T11:36:31;10.70;;;5.60;;
57341;SDS011;43175;51.002;18.316;2023-08-30T11:39:00;10.70;;;5.50;;
57341;SDS011;43175;51.002;18.316;2023-08-30T11:41:26;11.00;;;5.60;;
57341;SDS011;43175;51.002;18.316;2023-08-30T11:43:52;10.30;;;5.10;;
57341;SDS011;43175;51.002;18.316;2023-08-30T11:46:18;11.70;;;6.20;;
57341;SDS011;43175;51.002;18.316;2023-08-30T11:48:45;12.70;;;6.10;;
57341;SDS011;43175;51.002;18.316;2023-08-30T11:51:24;11.70;;;6.00;;
57341;SDS011;43175;51.002;18.316;2023-08-30T11:53:50;9.10;;;3.90;;
57341;SDS011;43175;51.002;18.316;2023-08-30T11:56:16;9.30;;;3.80;;
57341;SDS011;43175;51.002;18.316;2023-08-30T11:58:42;9.20;;;4.20;;
57341;SDS011;43175;51.002;18.316;2023-08-30T12:01:08;9.50;;;4.70;;
57341;SDS011;43175;51.002;18.316;2023-08-30T12:03:34;10.00;;;5.00;;
57341;SDS011;43175;51.002;18.316;2023-08-30T12:06:08;10.20;;;5.20;;
57341;SDS011;43175;51.002;18.316;2023-08-30T12:08:38;9.30;;;4.10;;
57341;SDS011;43175;51.002;18.316;2023-08-30T12:11:03;9.20;;;4.10;;
57341;SDS011;43175;51.002;18.316;2023-08-30T12:13:30;8.20;;;3.40;;
57341;SDS011;43175;51.002;18.316;2023-08-30T12:15:58;8.60;;;3.50;;
57341;SDS011;43175;51.002;18.316;2023-08-30T12:18:33;9.70;;;3.50;;
57341;SDS011;43175;51.002;18.316;2023-08-30T12:21:02;8.90;;;3.70;;
57341;SDS011;43175;51.002;18.316;2023-08-30T12:23:32;8.40;;;3.80;;
57341;SDS011;43175;51.002;18.316;2023-08-30T12:25:59;8.50;;;4.00;;
57341;SDS011;43175;51.002;18.316;2023-08-30T12:28:25;9.00;;;4.30;;
57341;SDS011;43175;51.002;18.316;2023-08-30T12:31:10;9.30;;;4.50;;
57341;SDS011;43175;51.002;18.316;2023-08-30T12:33:42;10.10;;;4.00;;
57341;SDS011;43175;51.002;18.316;2023-08-30T12:36:07;9.10;;;3.60;;
57341;SDS011;43175;51.002;18.316;2023-08-30T12:38:36;8.50;;;3.90;;
57341;SDS011;43175;51.002;18.316;2023-08-30T12:41:10;8.60;;;3.80;;
57341;SDS011;43175;51.002;18.316;2023-08-30T12:43:36;9.60;;;4.10;;
57341;SDS011;43175;51.002;18.316;2023-08-30T12:46:01;8.70;;;3.90;;
57341;SDS011;43175;51.002;18.316;2023-08-30T12:48:27;9.00;;;4.00;;
57341;SDS011;43175;51.002;18.316;2023-08-30T12:50:52;9.30;;;4.20;;
57341;SDS011;43175;51.002;18.316;2023-08-30T12:53:21;8.60;;;3.90;;
57341;SDS011;43175;51.002;18.316;2023-08-30T12:55:46;9.30;;;4.30;;
57341;SDS011;43175;51.002;18.316;2023-08-30T12:58:12;10.00;;;4.40;;
57341;SDS011;43175;51.002;18.316;2023-08-30T13:00:39;9.20;;;4.30;;
57341;SDS011;43175;51.002;18.316;2023-08-30T13:03:14;9.20;;;4.30;;
57341;SDS011;43175;51.002;18.316;2023-08-30T13:05:42;9.20;;;4.20;;
57341;SDS011;43175;51.002;18.316;2023-08-30T13:08:08;9.20;;;4.00;;
57341;SDS011;43175;51.002;18.316;2023-08-30T13:10:33;9.00;;;4.10;;
57341;SDS011;43175;51.002;18.316;2023-08-30T13:13:00;8.60;;;3.60;;
57341;SDS011;43175;51.002;18.316;2023-08-30T13:15:26;8.00;;;3.40;;
57341;SDS011;43175;51.002;18.316;2023-08-30T13:17:51;8.40;;;3.60;;
57341;SDS011;43175;51.002;18.316;2023-08-30T13:20:20;8.90;;;4.00;;
57341;SDS011;43175;51.002;18.316;2023-08-30T13:22:46;8.90;;;3.80;;
57341;SDS011;43175;51.002;18.316;2023-08-30T13:25:12;8.40;;;3.80;;
57341;SDS011;43175;51.002;18.316;2023-08-30T13:27:37;10.10;;;4.10;;
57341;SDS011;43175;51.002;18.316;2023-08-30T13:30:04;9.60;;;4.60;;
57341;SDS011;43175;51.002;18.316;2023-08-30T13:32:30;9.90;;;4.90;;
57341;SDS011;43175;51.002;18.316;2023-08-30T13:34:56;9.90;;;4.80;;
57341;SDS011;43175;51.002;18.316;2023-08-30T13:37:24;10.10;;;5.00;;
57341;SDS011;43175;51.002;18.316;2023-08-30T13:39:52;10.90;;;5.60;;
57341;SDS011;43175;51.002;18.316;2023-08-30T13:42:19;10.50;;;5.10;;
57341;SDS011;43175;51.002;18.316;2023-08-30T13:44:51;10.60;;;5.10;;
57341;SDS011;43175;51.002;18.316;2023-08-30T13:47:17;11.10;;;5.40;;
57341;SDS011;43175;51.002;18.316;2023-08-30T13:49:42;11.20;;;5.80;;
57341;SDS011;43175;51.002;18.316;2023-08-30T13:52:08;11.30;;;5.90;;
57341;SDS011;43175;51.002;18.316;2023-08-30T13:54:37;11.40;;;6.00;;
57341;SDS011;43175;51.002;18.316;2023-08-30T13:57:03;11.10;;;6.30;;
57341;SDS011;43175;51.002;18.316;2023-08-30T13:59:28;11.10;;;6.00;;
57341;SDS011;43175;51.002;18.316;2023-08-30T14:01:56;10.90;;;5.90;;
57341;SDS011;43175;51.002;18.316;2023-08-30T14:04:23;11.10;;;5.90;;
57341;SDS011;43175;51.002;18.316;2023-08-30T14:06:51;11.60;;;5.60;;
57341;SDS011;43175;51.002;18.316;2023-08-30T14:09:23;10.90;;;6.00;;
57341;SDS011;43175;51.002;18.316;2023-08-30T14:11:49;12.70;;;6.30;;
57341;SDS011;43175;51.002;18.316;2023-08-30T14:14:14;11.10;;;6.10;;
57341;SDS011;43175;51.002;18.316;2023-08-30T14:16:40;13.60;;;6.80;;
57341;SDS011;43175;51.002;18.316;2023-08-30T14:19:05;11.10;;;6.00;;
57341;SDS011;43175;51.002;18.316;2023-08-30T14:21:31;11.10;;;5.90;;
57341;SDS011;43175;51.002;18.316;2023-08-30T14:23:58;11.10;;;5.90;;
57341;SDS011;43175;51.002;18.316;2023-08-30T14:26:23;11.10;;;5.90;;